Latest Weather Observations for Cape Sorell

IDT60801

Issued at 8:05 pm EST Thursday 2 October 2014 (issued every 30 minutes, with the page automatically refreshed every 10 minutes)

About weather observations | Map of weather stations | Latest weather observations for TAS | Other Formats
Station Details ID: 097000 Name: CAPE SORELL Lat: -42.20 Lon: 145.17 Height: 19.3 m
Data from the previous 72 hours. | See also: Recent months at Cape Sorell
Date/Time
EST
Temp
°C
App
Temp
°C
Dew
Point
Rel
Hum
%
Delta-T
°C
Wind Press
QNH
hPa
Press
MSL
hPa
Rain
since 9 am
mm
Dir
 
Spd
km/h
Gust
km/h
Spd
kts
Gust
kts
02/08:00pm 11.3 4.3 7.0 75 2.0 SSW 33 39 18 21 1021.0 1021.0 0.0
02/07:30pm 11.2 4.4 7.1 76 2.0 SSW 32 35 17 19 1020.5 1020.5 0.0
02/07:00pm 11.2 4.4 6.9 75 2.0 SSW 32 37 17 20 1020.4 1020.4 0.0
02/06:30pm 11.3 3.9 6.8 74 2.1 SW 35 44 19 24 1019.9 1019.9 0.0
02/06:00pm 11.5 3.4 7.0 74 2.1 SW 39 44 21 24 1019.7 1019.7 0.0
02/05:30pm 12.1 4.5 7.4 73 2.3 SW 37 44 20 24 1019.7 1019.7 0.0
02/05:00pm 12.6 5.3 7.3 70 2.6 SW 35 41 19 22 1019.4 1019.4 0.0
02/04:30pm 12.1 4.3 6.6 69 2.6 SW 37 44 20 24 1019.3 1019.3 0.0
02/04:00pm 12.2 3.1 6.0 66 2.9 SW 43 48 23 26 1018.9 1018.9 0.0
02/03:30pm 12.9 4.1 8.2 73 2.3 SW 44 50 24 27 1018.7 1018.7 0.0
02/03:00pm 11.9 3.4 8.4 79 1.7 SW 43 52 23 28 1018.6 1018.6 0.0
02/02:30pm 13.0 5.6 9.8 81 1.6 SW 39 46 21 25 1018.4 1018.4 0.0
02/02:00pm 12.6 6.7 11.0 90 0.8 SW 33 37 18 20 1018.4 1018.4 0.0
02/01:30pm 13.4 5.8 9.1 75 2.2 SW 39 52 21 28 1018.0 1018.0 0.0
02/01:00pm 13.7 6.7 10.1 79 1.9 SW 37 43 20 23 1018.1 1018.1 0.0
02/12:30pm 13.4 5.9 9.6 78 1.9 SW 39 50 21 27 1018.0 1018.0 0.0
02/12:00pm 13.2 6.2 9.8 80 1.7 SW 37 44 20 24 1017.9 1017.9 0.0
02/11:30am 13.1 6.2 10.3 83 1.5 SW 37 43 20 23 1018.0 1018.0 0.0
02/11:00am 12.8 4.8 10.3 85 1.3 SW 43 50 23 27 1017.7 1017.7 0.0
02/10:30am 12.4 5.6 10.5 88 1.0 SW 37 44 20 24 1017.9 1017.9 0.0
02/10:00am 13.0 6.1 10.2 83 1.4 SW 37 48 20 26 1017.8 1017.8 0.0
02/09:30am 11.7 3.1 8.7 82 1.5 SW 44 54 24 29 1017.5 1017.5 0.0
02/09:00am 12.3 5.1 9.1 81 1.6 WSW 37 54 20 29 1017.4 1017.4 0.0
02/08:30am 12.4 5.2 9.2 81 1.6 SW 37 46 20 25 1017.1 1017.1 0.0
02/08:00am 11.9 3.5 9.5 85 1.2 SW 44 50 24 27 1016.9 1016.9 0.0
02/07:30am 11.0 2.7 9.3 89 0.9 WSW 43 56 23 30 1016.7 1016.7 0.0
02/07:00am 11.4 5.3 9.8 90 0.8 WSW 32 41 17 22 1016.8 1016.8 0.0
02/06:30am 11.1 4.8 9.7 91 0.7 WSW 33 43 18 23 1016.7 1016.7 0.0
02/06:00am 11.0 3.8 9.3 89 0.8 WSW 37 43 20 23 1016.4 1016.4 0.0
02/05:30am 11.1 4.0 9.7 91 0.7 WSW 37 46 20 25 1015.9 1015.9 0.0
02/05:00am 11.2 4.5 9.8 91 0.7 WSW 35 50 19 27 1015.8 1015.8 0.0
02/04:30am 10.9 3.1 9.7 92 0.6 WSW 41 54 22 29 1016.0 1016.0 0.0
02/04:00am 10.7 3.0 8.6 87 1.0 WSW 39 61 21 33 1015.3 1015.4 0.0
02/03:30am 11.4 3.8 9.0 85 1.2 WSW 39 59 21 32 1015.6 1015.7 0.0
02/03:21am 11.8 4.6 9.0 83 1.4 WSW 37 59 20 32 1015.4 1015.5 0.0
02/03:00am 11.5 4.3 9.1 85 1.2 W 37 52 20 28 1015.9 1015.9 0.0
02/02:30am 11.9 4.7 9.1 83 1.4 W 37 50 20 27 1015.8 1015.8 0.0
02/02:00am 11.7 5.4 9.6 87 1.1 W 33 43 18 23 1016.1 1016.1 0.0
02/01:30am 11.5 5.4 9.9 90 0.8 W 32 44 17 24 1016.4 1016.4 0.0
02/01:05am 11.0 3.9 9.4 90 0.8 W 37 56 20 30 1016.1 1016.1 0.0
02/01:00am 11.5 5.3 10.1 91 0.7 W 33 46 18 25 1016.5 1016.5 0.0
02/12:30am 11.3 6.0 9.9 91 0.7 W 28 39 15 21 1016.7 1016.7 0.0
02/12:00am 11.3 5.2 9.9 91 0.7 W 32 41 17 22 1016.7 1016.7 0.0
 
Date/Time
EST
Temp
°C
App
Temp
°C
Dew
Point
Rel
Hum
%
Delta-T
°C
Wind Press
QNH
hPa
Press
MSL
hPa
Rain
since 9 am
mm
Dir
 
Spd
km/h
Gust
km/h
Spd
kts
Gust
kts
01/11:30pm 11.3 6.0 9.7 90 0.8 W 28 37 15 20 1017.1 1017.1 0.0
01/11:26pm 11.1 4.9 9.5 90 0.8 WSW 32 50 17 27 1017.1 1017.1 0.0
01/11:00pm 11.6 5.4 10.2 91 0.7 W 33 44 18 24 1017.1 1017.1 0.0
01/10:33pm 11.7 6.5 10.1 90 0.8 W 28 50 15 27 1017.4 1017.4 0.0
01/10:30pm 11.5 6.6 9.9 90 0.8 W 26 50 14 27 1017.3 1017.3 0.0
01/10:00pm 11.6 6.0 10.0 90 0.8 W 30 48 16 26 1017.4 1017.4 0.0
01/09:30pm 11.7 5.7 10.1 90 0.8 W 32 41 17 22 1017.5 1017.5 0.0
01/09:00pm 11.7 5.8 10.3 91 0.7 W 32 41 17 22 1017.6 1017.6 0.0
01/08:30pm 11.4 6.1 10.0 91 0.7 W 28 39 15 21 1017.7 1017.7 0.0
01/08:00pm 11.5 5.7 9.6 88 1.0 WNW 30 46 16 25 1017.8 1017.8 0.0
01/07:30pm 11.7 6.0 9.8 88 1.0 WNW 30 39 16 21 1017.9 1017.9 0.0
01/07:00pm 11.7 4.6 9.6 87 1.1 WNW 37 44 20 24 1017.7 1017.7 0.0
01/06:30pm 11.5 5.2 8.9 84 1.3 WNW 32 44 17 24 1017.6 1017.6 0.0
01/06:00pm 11.5 4.9 7.8 78 1.8 WNW 32 39 17 21 1017.9 1017.9 0.0
01/05:30pm 12.0 6.1 7.5 74 2.2 WNW 28 37 15 20 1017.8 1017.8 0.0
01/05:00pm 12.0 5.7 7.3 73 2.3 W 30 39 16 21 1017.9 1017.9 0.0
01/04:30pm 11.9 6.3 7.0 72 2.3 W 26 37 14 20 1017.9 1017.9 0.0
01/04:00pm 12.4 6.7 6.7 68 2.7 W 26 35 14 19 1017.8 1017.8 0.0
01/03:30pm 12.7 6.2 6.3 65 3.0 W 30 43 16 23 1017.9 1017.9 0.0
01/03:00pm 12.2 5.3 6.3 67 2.8 WSW 32 43 17 23 1018.1 1018.1 0.0
01/02:30pm 11.9 4.4 6.2 68 2.7 WSW 35 43 19 23 1017.9 1017.9 0.0
01/02:00pm 12.6 4.2 5.8 63 3.2 WSW 39 46 21 25 1017.8 1017.8 0.0
01/01:30pm 12.3 6.3 5.5 63 3.2 W 26 35 14 19 1017.9 1017.9 0.0
01/01:00pm 11.7 6.6 6.2 69 2.6 W 22 32 12 17 1018.5 1018.5 0.0
01/12:30pm 11.7 5.1 6.2 69 2.6 W 30 37 16 20 1018.2 1018.2 0.0
01/12:00pm 12.1 4.2 6.2 67 2.8 SW 37 44 20 24 1017.9 1017.9 0.0
01/11:30am 12.3 5.2 5.5 63 3.2 WSW 32 41 17 22 1017.6 1017.6 0.0
01/11:00am 12.1 5.0 5.3 63 3.1 WSW 32 37 17 20 1017.8 1017.8 0.0
01/10:30am 11.5 3.7 4.7 63 3.1 WSW 35 46 19 25 1017.6 1017.6 0.0
01/10:00am 11.6 4.3 5.3 65 2.9 WSW 33 41 18 22 1017.5 1017.5 0.0
01/09:30am 11.1 4.3 5.2 67 2.7 SW 30 37 16 20 1017.4 1017.4 0.0
01/09:00am 8.9 2.9 5.5 79 1.5 SSW 26 37 14 20 1017.2 1017.2 16.4
01/08:30am 11.1 3.5 5.8 70 2.5 WSW 35 46 19 25 1016.4 1016.4 16.4
01/08:00am 9.8 2.7 5.4 74 2.0 WSW 32 44 17 24 1015.8 1015.8 16.4
01/07:40am 9.8 3.9 6.0 77 1.8 SW 26 56 14 30 1015.4 1015.5 16.4
01/07:30am 9.0 2.6 5.2 77 1.7 SW 28 37 15 20 1015.8 1015.8 16.4
01/07:21am 9.2 1.0 5.0 75 1.9 SSW 37 43 20 23 1015.6 1015.7 16.4
01/07:02am 9.9 0.1 5.3 73 2.1 WSW 46 67 25 36 1014.4 1014.5 16.4
01/07:00am 10.2 0.8 5.6 73 2.1 WSW 44 56 24 30 1014.7 1014.8 16.4
01/06:30am 10.1 1.2 5.3 72 2.2 SW 41 48 22 26 1014.0 1014.1 16.4
01/06:00am 9.2 1.0 4.6 73 2.0 WSW 37 50 20 27 1013.5 1013.6 16.4
01/05:30am 9.8 -0.4 5.2 73 2.1 SW 48 59 26 32 1012.5 1012.6 16.4
01/05:00am 9.8 -1.5 5.4 74 2.0 SW 54 65 29 35 1011.4 1011.5 16.4
01/04:30am 9.2 0.5 5.8 79 1.6 SW 41 52 22 28 1011.2 1011.3 16.4
01/04:26am 8.4 0.2 4.6 77 1.7 SW 37 43 20 23 1011.3 1011.4 16.4
01/04:00am 9.0 -2.9 5.2 77 1.7 SW 57 70 31 38 1010.3 1010.4 16.4
01/03:30am 8.6 -3.6 5.7 82 1.3 SSW 59 70 32 38 1009.7 1009.8 16.2
01/03:27am 8.6 -3.9 6.1 84 1.1 SW 61 70 33 38 1009.5 1009.6 16.2
01/03:20am 8.3 0.7 5.8 84 1.1 SSW 35 54 19 29 1009.8 1009.9 16.2
01/03:12am 8.1 0.4 5.4 83 1.2 SSW 35 41 19 22 1010.0 1010.1 16.2
01/03:00am 7.2 -3.2 4.0 80 1.4 SW 48 67 26 36 1010.2 1010.3 15.4
01/02:30am 9.8 -1.2 5.0 72 2.2 SW 52 63 28 34 1009.2 1009.3 14.4
01/02:00am 9.4 -1.3 4.6 72 2.1 SW 50 59 27 32 1008.6 1008.7 14.2
01/01:30am 9.3 -2.0 5.5 77 1.7 SW 54 63 29 34 1008.2 1008.3 14.2
01/01:07am 8.6 -2.3 3.6 71 2.2 WSW 50 69 27 37 1008.1 1008.2 14.2
01/01:00am 9.6 -1.1 4.6 71 2.2 SW 50 65 27 35 1007.6 1007.7 14.2
01/12:30am 9.7 -1.1 4.3 69 2.4 SW 50 59 27 32 1007.4 1007.5 14.2
01/12:00am 9.5 -1.7 4.1 69 2.4 SW 52 65 28 35 1006.6 1006.6 14.2
 
Date/Time
EST
Temp
°C
App
Temp
°C
Dew
Point
Rel
Hum
%
Delta-T
°C
Wind Press
QNH
hPa
Press
MSL
hPa
Rain
since 9 am
mm
Dir
 
Spd
km/h
Gust
km/h
Spd
kts
Gust
kts
30/11:30pm 9.6 -0.8 4.0 68 2.5 SW 48 57 26 31 1006.1 1006.1 14.2
30/11:00pm 9.7 -1.7 4.7 71 2.2 WSW 54 67 29 36 1005.3 1005.3 14.2
30/10:30pm 9.5 -1.1 5.1 74 2.0 WSW 50 59 27 32 1004.9 1004.9 14.2
30/10:00pm 9.4 -1.2 5.0 74 2.0 SW 50 57 27 31 1004.6 1004.6 14.2
30/09:43pm 9.0 0.2 5.7 80 1.5 SW 41 48 22 26 1004.7 1004.7 14.2
30/09:30pm 8.2 -4.1 5.1 81 1.4 SW 59 72 32 39 1004.3 1004.3 14.2
30/09:24pm 8.3 -4.9 4.5 77 1.7 SW 63 72 34 39 1003.8 1003.8 14.2
30/09:21pm 8.9 -0.4 4.9 76 1.8 SW 43 65 23 35 1003.9 1003.9 14.2
30/09:20pm 9.0 0.5 5.2 77 1.7 SW 39 54 21 29 1004.1 1004.1 14.2
30/09:04pm 7.6 0.5 3.5 75 1.7 SW 30 35 16 19 1004.3 1004.3 14.2
30/09:02pm 7.6 -4.5 3.3 74 1.8 SW 56 76 30 41 1004.2 1004.2 14.2
30/09:00pm 7.7 -4.9 3.4 74 1.8 WSW 59 76 32 41 1004.1 1004.1 14.2
30/08:52pm 9.5 -3.7 4.5 71 2.2 SW 63 76 34 41 1003.2 1003.2 14.2
30/08:50pm 10.2 1.6 4.6 68 2.5 SW 39 65 21 35 1003.7 1003.7 14.2
30/08:30pm 9.9 0.1 3.4 64 2.8 WSW 44 54 24 29 1003.8 1003.8 14.2
30/08:00pm 9.6 -1.0 3.1 64 2.8 SW 48 59 26 32 1003.1 1003.1 14.2
30/07:30pm 9.6 -1.6 3.8 67 2.5 WSW 52 65 28 35 1002.3 1002.3 14.2
30/07:00pm 9.8 -1.7 4.4 69 2.4 SW 54 65 29 35 1001.5 1001.5 14.2
30/06:30pm 9.7 -1.4 4.5 70 2.3 SW 52 61 28 33 1000.7 1000.7 14.2
30/06:00pm 9.9 -0.5 5.9 76 1.9 WSW 50 59 27 32 1000.0 1000.0 14.2
30/05:30pm 9.8 0.6 6.2 78 1.7 WSW 44 54 24 29 1000.0 1000.0 14.0
30/05:00pm 9.2 0.3 7.0 86 1.0 WSW 43 56 23 30 999.4 999.4 14.0
30/04:30pm 8.8 -0.6 7.1 89 0.8 WSW 46 54 25 29 998.5 998.5 14.0
30/04:00pm 8.3 -3.5 7.4 94 0.4 SW 59 70 32 38 997.5 997.5 14.0
30/03:30pm 9.1 -1.5 8.5 96 0.3 WSW 54 74 29 40 996.2 996.2 13.8
30/03:26pm 9.4 0.4 8.8 96 0.3 WSW 46 65 25 35 996.2 996.2 13.4
30/03:00pm 9.0 -1.6 8.6 97 0.2 WSW 54 67 29 36 995.7 995.7 13.4
30/02:51pm 9.2 -1.9 8.9 98 0.1 WSW 57 67 31 36 995.3 995.3 13.2
30/02:45pm 9.3 1.7 9.0 98 0.1 WSW 39 59 21 32 995.4 995.4 13.2
30/02:30pm 8.7 -0.1 8.1 96 0.3 WSW 44 57 24 31 995.8 995.8 12.8
30/02:23pm 9.5 0.9 9.0 97 0.2 WSW 44 57 24 31 995.7 995.7 12.0
30/02:21pm 10.6 4.7 10.4 99 0.1 W 32 52 17 28 995.8 995.8 12.0
30/02:00pm 10.3 5.1 10.1 99 0.1 W 28 39 15 21 995.7 995.7 12.0
30/01:56pm 10.4 5.2 10.2 99 0.1 W 28 39 15 21 995.7 995.7 12.0
30/01:30pm 10.2 7.4 10.1 99 0.1 W 15 20 8 11 995.6 995.6 12.0
30/01:00pm 9.5 6.2 9.4 99 0.1 W 17 20 9 11 995.8 995.8 11.4
30/12:30pm 10.1 5.6 10.0 99 0.1 WNW 24 32 13 17 996.1 996.1 8.8
30/12:00pm 10.0 5.1 9.9 99 0.1 W 26 35 14 19 996.1 996.1 7.8
30/11:30am 10.0 6.8 9.9 99 0.1 W 17 26 9 14 995.8 995.8 6.4
30/11:00am 9.8 3.7 9.7 99 0.1 W 32 46 17 25 996.5 996.5 4.4
30/10:30am 10.3 5.8 10.0 98 0.2 WSW 24 30 13 16 996.4 996.4 2.0
30/10:00am 10.4 5.2 10.1 98 0.2 WSW 28 37 15 20 996.9 996.9 0.6
30/09:30am 10.6 4.3 9.8 95 0.4 W 33 44 18 24 997.3 997.3 0.0
30/09:23am 12.7 7.4 12.5 99 0.1 W 32 44 17 24 997.6 997.6 0.0
30/09:00am 12.8 4.9 12.6 99 0.1 NNW 46 63 25 34 997.3 997.3 14.2
30/08:52am 12.6 4.6 12.4 99 0.1 NNW 46 57 25 31 997.4 997.4 14.2
30/08:44am 11.7 5.1 11.2 97 0.3 WNW 37 59 20 32 997.4 997.4 12.2
30/08:39am 12.1 6.0 11.6 97 0.3 WNW 35 41 19 22 997.6 997.6 10.0
30/08:30am 12.4 5.6 11.9 97 0.3 N 39 54 21 29 997.4 997.4 8.6
30/08:23am 12.4 2.7 11.8 96 0.3 N 54 74 29 40 997.8 997.8 7.2
30/08:00am 12.3 1.9 11.4 94 0.5 N 57 70 31 38 997.3 997.3 5.4
30/07:30am 12.1 2.0 10.3 89 0.9 N 54 70 29 38 997.1 997.1 2.6
30/07:05am 13.4 1.7 9.3 76 2.1 N 61 82 33 44 997.5 997.5 0.6
30/07:00am 13.6 1.9 9.3 75 2.2 N 61 78 33 42 997.5 997.5 0.6
30/06:30am 13.4 3.1 9.8 79 1.8 N 54 74 29 40 998.0 998.0 0.6
30/06:00am 13.2 2.6 10.0 81 1.7 N 56 70 30 38 998.2 998.2 0.6
30/05:30am 13.1 2.8 9.5 79 1.8 N 54 65 29 35 998.7 998.7 0.6
30/05:00am 13.1 3.5 9.5 79 1.8 N 50 61 27 33 999.3 999.3 0.6
30/04:30am 13.0 2.7 9.6 80 1.7 N 54 65 29 35 999.4 999.4 0.6
30/04:00am 13.1 3.2 9.7 80 1.8 N 52 65 28 35 1000.2 1000.2 0.6
30/03:30am 13.2 3.6 9.6 79 1.8 N 50 63 27 34 1000.6 1000.6 0.6
30/03:00am 13.1 3.5 9.4 78 1.9 N 50 63 27 34 1001.3 1001.3 0.6
30/02:30am 13.1 3.9 9.4 78 1.9 N 48 61 26 33 1001.7 1001.7 0.6
30/02:00am 13.0 3.5 9.8 81 1.6 N 50 63 27 34 1002.4 1002.4 0.6
30/01:30am 13.1 4.5 10.3 83 1.5 N 46 61 25 33 1003.2 1003.2 0.6
30/01:00am 13.0 4.3 10.0 82 1.6 N 46 61 25 33 1003.6 1003.6 0.6
30/12:30am 13.2 3.7 9.8 80 1.7 N 50 67 27 36 1004.1 1004.1 0.6
30/12:00am 13.3 3.9 10.1 81 1.7 N 50 63 27 34 1004.3 1004.3 0.6
 
Date/Time
EST
Temp
°C
App
Temp
°C
Dew
Point
Rel
Hum
%
Delta-T
°C
Wind Press
QNH
hPa
Press
MSL
hPa
Rain
since 9 am
mm
Dir
 
Spd
km/h
Gust
km/h
Spd
kts
Gust
kts
29/11:34pm 12.9 4.2 10.1 83 1.4 NNW 46 69 25 37 1004.9 1004.9 0.6
29/11:30pm 12.9 3.9 10.1 83 1.4 N 48 61 26 33 1004.7 1004.7 0.6
29/11:00pm 12.6 3.3 10.7 88 1.0 N 50 63 27 34 1004.7 1004.7 0.6
29/10:45pm 12.0 4.5 10.7 92 0.7 NNW 41 67 22 36 1004.7 1004.7 0.6
29/10:30pm 11.4 4.0 9.8 90 0.8 NW 39 56 21 30 1005.8 1005.8 0.6
29/10:09pm 11.9 4.2 10.0 88 1.0 NW 41 59 22 32 1006.0 1006.0 0.2
29/10:00pm 11.9 2.0 9.6 86 1.2 WNW 52 61 28 33 1005.7 1005.7 0.2
29/09:58pm 11.9 1.9 9.5 85 1.2 WNW 52 61 28 33 1005.7 1005.7 0.2
29/09:30pm 12.9 5.6 10.1 83 1.4 NNW 39 65 21 35 1005.8 1005.8 0.2
29/09:13pm 12.5 4.9 10.4 87 1.1 NNW 41 61 22 33 1005.7 1005.7 0.2
29/09:00pm 12.5 5.3 10.6 88 1.0 NNW 39 54 21 29 1005.9 1005.9 0.2
29/08:30pm 13.0 5.4 10.4 84 1.3 NNW 41 61 22 33 1006.0 1006.0 0.2

Other Formats:

Comma delimited format used in spreadsheet applications
http://www.bom.gov.au/fwo/IDT60801/IDT60801.94974.axf

JavaScript Object Notation format (JSON) in row-major order
http://www.bom.gov.au/fwo/IDT60801/IDT60801.94974.json